sensor_id;sensor_type;location;lat;lon;timestamp;P1;durP1;ratioP1;P2;durP2;ratioP2
81821;SDS011;72257;52.384;4.882;2023-11-21T00:01:03;14.93;;;7.10;;
81821;SDS011;72257;52.384;4.882;2023-11-21T00:03:29;17.25;;;7.68;;
81821;SDS011;72257;52.384;4.882;2023-11-21T00:05:54;19.35;;;6.75;;
81821;SDS011;72257;52.384;4.882;2023-11-21T00:08:19;12.93;;;7.00;;
81821;SDS011;72257;52.384;4.882;2023-11-21T00:10:45;14.27;;;6.87;;
81821;SDS011;72257;52.384;4.882;2023-11-21T00:13:10;12.40;;;6.63;;
81821;SDS011;72257;52.384;4.882;2023-11-21T00:15:37;13.82;;;6.55;;
81821;SDS011;72257;52.384;4.882;2023-11-21T00:18:02;11.73;;;6.27;;
81821;SDS011;72257;52.384;4.882;2023-11-21T00:20:27;10.70;;;6.27;;
81821;SDS011;72257;52.384;4.882;2023-11-21T00:22:53;13.37;;;6.20;;
81821;SDS011;72257;52.384;4.882;2023-11-21T00:25:18;11.17;;;6.03;;
81821;SDS011;72257;52.384;4.882;2023-11-21T00:27:43;13.60;;;5.97;;
81821;SDS011;72257;52.384;4.882;2023-11-21T00:30:09;15.90;;;6.40;;
81821;SDS011;72257;52.384;4.882;2023-11-21T00:32:38;13.32;;;5.65;;
81821;SDS011;72257;52.384;4.882;2023-11-21T00:35:03;12.55;;;6.72;;
81821;SDS011;72257;52.384;4.882;2023-11-21T00:37:28;16.00;;;5.60;;
81821;SDS011;72257;52.384;4.882;2023-11-21T00:39:53;10.60;;;5.77;;
81821;SDS011;72257;52.384;4.882;2023-11-21T00:42:18;12.13;;;5.50;;
81821;SDS011;72257;52.384;4.882;2023-11-21T00:44:44;11.53;;;5.37;;
81821;SDS011;72257;52.384;4.882;2023-11-21T00:47:09;12.40;;;6.07;;
81821;SDS011;72257;52.384;4.882;2023-11-21T00:49:34;12.83;;;5.50;;
81821;SDS011;72257;52.384;4.882;2023-11-21T00:51:59;17.03;;;7.60;;
81821;SDS011;72257;52.384;4.882;2023-11-21T00:54:25;12.52;;;5.68;;
81821;SDS011;72257;52.384;4.882;2023-11-21T00:56:50;13.43;;;5.77;;
81821;SDS011;72257;52.384;4.882;2023-11-21T00:59:15;11.80;;;5.67;;
81821;SDS011;72257;52.384;4.882;2023-11-21T01:01:40;10.97;;;5.30;;
81821;SDS011;72257;52.384;4.882;2023-11-21T01:04:05;12.93;;;5.20;;
81821;SDS011;72257;52.384;4.882;2023-11-21T01:06:31;9.77;;;5.47;;
81821;SDS011;72257;52.384;4.882;2023-11-21T01:08:57;9.30;;;5.07;;
81821;SDS011;72257;52.384;4.882;2023-11-21T01:11:25;12.23;;;5.30;;
81821;SDS011;72257;52.384;4.882;2023-11-21T01:13:51;14.63;;;6.50;;
81821;SDS011;72257;52.384;4.882;2023-11-21T01:16:17;9.40;;;5.13;;
81821;SDS011;72257;52.384;4.882;2023-11-21T01:18:42;11.07;;;5.17;;
81821;SDS011;72257;52.384;4.882;2023-11-21T01:21:08;11.10;;;5.65;;
81821;SDS011;72257;52.384;4.882;2023-11-21T01:23:34;12.30;;;6.07;;
81821;SDS011;72257;52.384;4.882;2023-11-21T01:25:59;15.63;;;5.10;;
81821;SDS011;72257;52.384;4.882;2023-11-21T01:28:24;10.90;;;4.77;;
81821;SDS011;72257;52.384;4.882;2023-11-21T01:30:49;11.13;;;4.63;;
81821;SDS011;72257;52.384;4.882;2023-11-21T01:33:15;11.57;;;4.70;;
81821;SDS011;72257;52.384;4.882;2023-11-21T01:35:43;13.40;;;5.03;;
81821;SDS011;72257;52.384;4.882;2023-11-21T01:38:08;11.23;;;4.63;;
81821;SDS011;72257;52.384;4.882;2023-11-21T01:40:34;9.27;;;4.17;;
81821;SDS011;72257;52.384;4.882;2023-11-21T01:42:59;13.93;;;4.28;;
81821;SDS011;72257;52.384;4.882;2023-11-21T01:45:24;10.37;;;4.93;;
81821;SDS011;72257;52.384;4.882;2023-11-21T01:47:50;10.63;;;5.00;;
81821;SDS011;72257;52.384;4.882;2023-11-21T01:50:15;9.50;;;4.63;;
81821;SDS011;72257;52.384;4.882;2023-11-21T01:52:41;13.23;;;4.55;;
81821;SDS011;72257;52.384;4.882;2023-11-21T01:55:08;11.60;;;4.38;;
81821;SDS011;72257;52.384;4.882;2023-11-21T01:57:33;10.75;;;5.13;;
81821;SDS011;72257;52.384;4.882;2023-11-21T01:59:59;11.20;;;4.70;;
81821;SDS011;72257;52.384;4.882;2023-11-21T02:02:40;12.23;;;5.25;;
81821;SDS011;72257;52.384;4.882;2023-11-21T02:05:05;10.33;;;4.53;;
81821;SDS011;72257;52.384;4.882;2023-11-21T02:07:30;9.03;;;3.90;;
81821;SDS011;72257;52.384;4.882;2023-11-21T02:09:57;10.23;;;5.18;;
81821;SDS011;72257;52.384;4.882;2023-11-21T02:12:22;10.30;;;4.97;;
81821;SDS011;72257;52.384;4.882;2023-11-21T02:14:47;10.07;;;4.87;;
81821;SDS011;72257;52.384;4.882;2023-11-21T02:17:13;13.48;;;4.88;;
81821;SDS011;72257;52.384;4.882;2023-11-21T02:19:39;10.00;;;4.78;;
81821;SDS011;72257;52.384;4.882;2023-11-21T02:22:04;11.63;;;5.03;;
81821;SDS011;72257;52.384;4.882;2023-11-21T02:24:31;11.23;;;4.55;;
81821;SDS011;72257;52.384;4.882;2023-11-21T02:26:56;10.25;;;4.50;;
81821;SDS011;72257;52.384;4.882;2023-11-21T02:29:22;9.00;;;4.63;;
81821;SDS011;72257;52.384;4.882;2023-11-21T02:31:47;9.23;;;5.20;;
81821;SDS011;72257;52.384;4.882;2023-11-21T02:34:13;12.88;;;4.60;;
81821;SDS011;72257;52.384;4.882;2023-11-21T02:36:39;9.13;;;5.15;;
81821;SDS011;72257;52.384;4.882;2023-11-21T02:39:04;13.80;;;4.80;;
81821;SDS011;72257;52.384;4.882;2023-11-21T02:41:29;9.90;;;4.27;;
81821;SDS011;72257;52.384;4.882;2023-11-21T02:43:54;11.57;;;4.90;;
81821;SDS011;72257;52.384;4.882;2023-11-21T02:46:20;15.52;;;4.60;;
81821;SDS011;72257;52.384;4.882;2023-11-21T02:48:45;11.70;;;5.27;;
81821;SDS011;72257;52.384;4.882;2023-11-21T02:51:10;12.90;;;5.07;;
81821;SDS011;72257;52.384;4.882;2023-11-21T02:53:35;9.10;;;4.93;;
81821;SDS011;72257;52.384;4.882;2023-11-21T02:56:01;11.27;;;4.70;;
81821;SDS011;72257;52.384;4.882;2023-11-21T02:58:26;10.53;;;4.50;;
81821;SDS011;72257;52.384;4.882;2023-11-21T03:00:51;9.87;;;4.80;;
81821;SDS011;72257;52.384;4.882;2023-11-21T03:03:16;7.25;;;4.32;;
81821;SDS011;72257;52.384;4.882;2023-11-21T03:05:42;10.17;;;5.37;;
81821;SDS011;72257;52.384;4.882;2023-11-21T03:08:07;10.68;;;5.05;;
81821;SDS011;72257;52.384;4.882;2023-11-21T03:10:33;8.20;;;4.30;;
81821;SDS011;72257;52.384;4.882;2023-11-21T03:12:58;10.07;;;4.93;;
81821;SDS011;72257;52.384;4.882;2023-11-21T03:15:23;10.73;;;5.00;;
81821;SDS011;72257;52.384;4.882;2023-11-21T03:17:48;15.57;;;4.90;;
81821;SDS011;72257;52.384;4.882;2023-11-21T03:20:14;11.25;;;5.30;;
81821;SDS011;72257;52.384;4.882;2023-11-21T03:22:41;11.00;;;5.90;;
81821;SDS011;72257;52.384;4.882;2023-11-21T03:25:07;10.30;;;5.30;;
81821;SDS011;72257;52.384;4.882;2023-11-21T03:27:35;11.20;;;5.50;;
81821;SDS011;72257;52.384;4.882;2023-11-21T03:30:00;10.83;;;5.40;;
81821;SDS011;72257;52.384;4.882;2023-11-21T03:32:26;11.90;;;5.30;;
81821;SDS011;72257;52.384;4.882;2023-11-21T03:34:54;12.00;;;4.83;;
81821;SDS011;72257;52.384;4.882;2023-11-21T03:37:21;9.98;;;4.55;;
81821;SDS011;72257;52.384;4.882;2023-11-21T03:39:46;10.17;;;5.27;;
81821;SDS011;72257;52.384;4.882;2023-11-21T03:42:12;7.97;;;4.38;;
81821;SDS011;72257;52.384;4.882;2023-11-21T03:44:37;11.93;;;4.50;;
81821;SDS011;72257;52.384;4.882;2023-11-21T03:47:02;8.23;;;4.13;;
81821;SDS011;72257;52.384;4.882;2023-11-21T03:49:27;11.57;;;4.33;;
81821;SDS011;72257;52.384;4.882;2023-11-21T03:51:54;10.10;;;4.95;;
81821;SDS011;72257;52.384;4.882;2023-11-21T03:54:19;9.90;;;5.60;;
81821;SDS011;72257;52.384;4.882;2023-11-21T03:56:44;8.23;;;4.67;;
81821;SDS011;72257;52.384;4.882;2023-11-21T03:59:09;10.23;;;5.07;;
81821;SDS011;72257;52.384;4.882;2023-11-21T04:01:34;7.70;;;4.60;;
81821;SDS011;72257;52.384;4.882;2023-11-21T04:04:00;8.57;;;4.83;;
81821;SDS011;72257;52.384;4.882;2023-11-21T04:06:25;10.53;;;6.00;;
81821;SDS011;72257;52.384;4.882;2023-11-21T04:08:50;10.80;;;5.30;;
81821;SDS011;72257;52.384;4.882;2023-11-21T04:11:15;12.33;;;5.43;;
81821;SDS011;72257;52.384;4.882;2023-11-21T04:13:41;10.03;;;5.70;;
81821;SDS011;72257;52.384;4.882;2023-11-21T04:16:07;9.23;;;5.18;;
81821;SDS011;72257;52.384;4.882;2023-11-21T04:18:33;10.15;;;5.32;;
81821;SDS011;72257;52.384;4.882;2023-11-21T04:20:58;12.02;;;5.40;;
81821;SDS011;72257;52.384;4.882;2023-11-21T04:23:24;10.00;;;5.57;;
81821;SDS011;72257;52.384;4.882;2023-11-21T04:25:49;9.23;;;5.20;;
81821;SDS011;72257;52.384;4.882;2023-11-21T04:28:14;11.47;;;5.47;;
81821;SDS011;72257;52.384;4.882;2023-11-21T04:30:39;12.97;;;5.77;;
81821;SDS011;72257;52.384;4.882;2023-11-21T04:33:05;9.35;;;5.35;;
81821;SDS011;72257;52.384;4.882;2023-11-21T04:35:32;11.77;;;6.45;;
81821;SDS011;72257;52.384;4.882;2023-11-21T04:37:57;10.20;;;5.67;;
81821;SDS011;72257;52.384;4.882;2023-11-21T04:40:23;9.20;;;5.60;;
81821;SDS011;72257;52.384;4.882;2023-11-21T04:42:48;13.00;;;5.87;;
81821;SDS011;72257;52.384;4.882;2023-11-21T04:45:13;9.50;;;5.13;;
81821;SDS011;72257;52.384;4.882;2023-11-21T04:47:38;8.27;;;5.27;;
81821;SDS011;72257;52.384;4.882;2023-11-21T04:50:03;8.70;;;4.83;;
81821;SDS011;72257;52.384;4.882;2023-11-21T04:52:29;11.35;;;5.47;;
81821;SDS011;72257;52.384;4.882;2023-11-21T04:54:54;10.32;;;5.05;;
81821;SDS011;72257;52.384;4.882;2023-11-21T04:57:20;8.17;;;4.60;;
81821;SDS011;72257;52.384;4.882;2023-11-21T04:59:45;6.97;;;4.30;;
81821;SDS011;72257;52.384;4.882;2023-11-21T05:02:10;9.70;;;4.40;;
81821;SDS011;72257;52.384;4.882;2023-11-21T05:04:36;10.40;;;4.45;;
81821;SDS011;72257;52.384;4.882;2023-11-21T05:07:02;12.27;;;4.20;;
81821;SDS011;72257;52.384;4.882;2023-11-21T05:09:27;10.20;;;3.73;;
81821;SDS011;72257;52.384;4.882;2023-11-21T05:11:53;11.05;;;4.20;;
81821;SDS011;72257;52.384;4.882;2023-11-21T05:14:19;7.80;;;3.40;;
81821;SDS011;72257;52.384;4.882;2023-11-21T05:16:44;9.38;;;3.72;;
81821;SDS011;72257;52.384;4.882;2023-11-21T05:19:09;9.90;;;4.50;;
81821;SDS011;72257;52.384;4.882;2023-11-21T05:21:34;8.38;;;3.65;;
81821;SDS011;72257;52.384;4.882;2023-11-21T05:24:01;10.98;;;3.65;;
81821;SDS011;72257;52.384;4.882;2023-11-21T05:26:26;6.28;;;3.45;;
81821;SDS011;72257;52.384;4.882;2023-11-21T05:28:52;9.43;;;4.32;;
81821;SDS011;72257;52.384;4.882;2023-11-21T05:31:19;6.85;;;3.60;;
81821;SDS011;72257;52.384;4.882;2023-11-21T05:33:44;8.47;;;3.30;;
81821;SDS011;72257;52.384;4.882;2023-11-21T05:36:09;7.43;;;3.25;;
81821;SDS011;72257;52.384;4.882;2023-11-21T05:38:35;9.17;;;3.67;;
81821;SDS011;72257;52.384;4.882;2023-11-21T05:41:01;8.23;;;3.50;;
81821;SDS011;72257;52.384;4.882;2023-11-21T05:43:26;8.18;;;3.50;;
81821;SDS011;72257;52.384;4.882;2023-11-21T05:45:53;7.90;;;2.88;;
81821;SDS011;72257;52.384;4.882;2023-11-21T05:48:18;8.07;;;3.30;;
81821;SDS011;72257;52.384;4.882;2023-11-21T05:50:43;7.67;;;3.17;;
81821;SDS011;72257;52.384;4.882;2023-11-21T05:53:09;6.30;;;2.65;;
81821;SDS011;72257;52.384;4.882;2023-11-21T05:55:36;8.20;;;3.65;;
81821;SDS011;72257;52.384;4.882;2023-11-21T05:58:02;10.02;;;3.63;;
81821;SDS011;72257;52.384;4.882;2023-11-21T06:00:27;5.82;;;3.33;;
81821;SDS011;72257;52.384;4.882;2023-11-21T06:02:53;9.80;;;3.67;;
81821;SDS011;72257;52.384;4.882;2023-11-21T06:05:19;8.98;;;4.63;;
81821;SDS011;72257;52.384;4.882;2023-11-21T06:07:45;8.63;;;3.17;;
81821;SDS011;72257;52.384;4.882;2023-11-21T06:10:10;4.88;;;2.80;;
81821;SDS011;72257;52.384;4.882;2023-11-21T06:12:37;7.70;;;3.30;;
81821;SDS011;72257;52.384;4.882;2023-11-21T06:15:03;4.43;;;2.63;;
81821;SDS011;72257;52.384;4.882;2023-11-21T06:17:34;5.93;;;2.95;;
81821;SDS011;72257;52.384;4.882;2023-11-21T06:20:05;7.15;;;2.78;;
81821;SDS011;72257;52.384;4.882;2023-11-21T06:22:52;6.85;;;2.90;;
81821;SDS011;72257;52.384;4.882;2023-11-21T06:25:17;7.68;;;3.17;;
81821;SDS011;72257;52.384;4.882;2023-11-21T06:27:44;8.43;;;3.92;;
81821;SDS011;72257;52.384;4.882;2023-11-21T06:30:09;5.28;;;3.35;;
81821;SDS011;72257;52.384;4.882;2023-11-21T06:32:36;8.05;;;3.03;;
81821;SDS011;72257;52.384;4.882;2023-11-21T06:35:02;8.35;;;3.08;;
81821;SDS011;72257;52.384;4.882;2023-11-21T06:37:29;7.57;;;3.63;;
81821;SDS011;72257;52.384;4.882;2023-11-21T06:39:54;6.60;;;2.80;;
81821;SDS011;72257;52.384;4.882;2023-11-21T06:42:19;10.53;;;4.10;;
81821;SDS011;72257;52.384;4.882;2023-11-21T06:44:45;7.18;;;3.47;;
81821;SDS011;72257;52.384;4.882;2023-11-21T06:47:10;6.07;;;3.25;;
81821;SDS011;72257;52.384;4.882;2023-11-21T06:49:36;8.57;;;3.80;;
81821;SDS011;72257;52.384;4.882;2023-11-21T06:52:01;11.43;;;3.37;;
81821;SDS011;72257;52.384;4.882;2023-11-21T06:54:27;6.15;;;3.00;;
81821;SDS011;72257;52.384;4.882;2023-11-21T06:56:52;10.00;;;4.40;;
81821;SDS011;72257;52.384;4.882;2023-11-21T06:59:18;8.85;;;3.70;;
81821;SDS011;72257;52.384;4.882;2023-11-21T07:01:43;7.07;;;3.63;;
81821;SDS011;72257;52.384;4.882;2023-11-21T07:04:09;7.18;;;3.33;;
81821;SDS011;72257;52.384;4.882;2023-11-21T07:06:35;10.07;;;3.63;;
81821;SDS011;72257;52.384;4.882;2023-11-21T07:09:00;10.02;;;4.78;;
81821;SDS011;72257;52.384;4.882;2023-11-21T07:11:26;9.00;;;4.32;;
81821;SDS011;72257;52.384;4.882;2023-11-21T07:13:51;10.38;;;4.40;;
81821;SDS011;72257;52.384;4.882;2023-11-21T07:16:17;9.53;;;4.53;;
81821;SDS011;72257;52.384;4.882;2023-11-21T07:18:43;14.18;;;5.82;;
81821;SDS011;72257;52.384;4.882;2023-11-21T07:21:08;8.33;;;3.97;;
81821;SDS011;72257;52.384;4.882;2023-11-21T07:23:34;10.20;;;4.68;;
81821;SDS011;72257;52.384;4.882;2023-11-21T07:25:59;11.05;;;4.03;;
81821;SDS011;72257;52.384;4.882;2023-11-21T07:28:24;12.45;;;4.72;;
81821;SDS011;72257;52.384;4.882;2023-11-21T07:30:50;9.25;;;4.30;;
81821;SDS011;72257;52.384;4.882;2023-11-21T07:33:15;10.93;;;5.50;;
81821;SDS011;72257;52.384;4.882;2023-11-21T07:35:41;9.30;;;4.63;;
81821;SDS011;72257;52.384;4.882;2023-11-21T07:38:06;11.20;;;5.25;;
81821;SDS011;72257;52.384;4.882;2023-11-21T07:40:31;11.50;;;4.57;;
81821;SDS011;72257;52.384;4.882;2023-11-21T07:42:57;11.47;;;4.67;;
81821;SDS011;72257;52.384;4.882;2023-11-21T07:45:22;12.23;;;5.07;;
81821;SDS011;72257;52.384;4.882;2023-11-21T07:47:47;11.07;;;4.85;;
81821;SDS011;72257;52.384;4.882;2023-11-21T07:50:13;11.57;;;4.93;;
81821;SDS011;72257;52.384;4.882;2023-11-21T07:52:38;11.48;;;5.28;;
81821;SDS011;72257;52.384;4.882;2023-11-21T07:55:04;12.57;;;5.65;;
81821;SDS011;72257;52.384;4.882;2023-11-21T07:57:30;12.15;;;4.93;;
81821;SDS011;72257;52.384;4.882;2023-11-21T07:59:55;11.33;;;4.73;;
81821;SDS011;72257;52.384;4.882;2023-11-21T08:02:21;11.80;;;5.00;;
81821;SDS011;72257;52.384;4.882;2023-11-21T08:04:46;8.63;;;4.07;;
81821;SDS011;72257;52.384;4.882;2023-11-21T08:07:14;13.85;;;3.83;;
81821;SDS011;72257;52.384;4.882;2023-11-21T08:09:39;12.32;;;4.57;;
81821;SDS011;72257;52.384;4.882;2023-11-21T08:12:04;11.87;;;4.83;;
81821;SDS011;72257;52.384;4.882;2023-11-21T08:14:29;10.20;;;4.20;;
81821;SDS011;72257;52.384;4.882;2023-11-21T08:16:55;7.80;;;4.23;;
81821;SDS011;72257;52.384;4.882;2023-11-21T08:19:22;10.23;;;4.90;;
81821;SDS011;72257;52.384;4.882;2023-11-21T08:21:49;10.45;;;4.47;;
81821;SDS011;72257;52.384;4.882;2023-11-21T08:24:15;10.50;;;5.03;;
81821;SDS011;72257;52.384;4.882;2023-11-21T08:26:40;9.17;;;3.73;;
81821;SDS011;72257;52.384;4.882;2023-11-21T08:29:05;12.90;;;4.27;;
81821;SDS011;72257;52.384;4.882;2023-11-21T08:31:32;9.73;;;4.57;;
81821;SDS011;72257;52.384;4.882;2023-11-21T08:33:57;9.63;;;4.25;;
81821;SDS011;72257;52.384;4.882;2023-11-21T08:36:22;8.97;;;4.30;;
81821;SDS011;72257;52.384;4.882;2023-11-21T08:38:50;11.13;;;4.60;;
81821;SDS011;72257;52.384;4.882;2023-11-21T08:41:17;9.23;;;5.10;;
81821;SDS011;72257;52.384;4.882;2023-11-21T08:43:42;10.93;;;4.70;;
81821;SDS011;72257;52.384;4.882;2023-11-21T08:46:08;10.37;;;4.40;;
81821;SDS011;72257;52.384;4.882;2023-11-21T08:48:38;10.32;;;5.20;;
81821;SDS011;72257;52.384;4.882;2023-11-21T08:51:03;9.80;;;5.17;;
81821;SDS011;72257;52.384;4.882;2023-11-21T08:53:29;9.48;;;5.13;;
81821;SDS011;72257;52.384;4.882;2023-11-21T08:55:56;9.95;;;4.55;;
81821;SDS011;72257;52.384;4.882;2023-11-21T08:58:21;11.13;;;5.07;;
81821;SDS011;72257;52.384;4.882;2023-11-21T09:00:46;12.27;;;5.90;;
81821;SDS011;72257;52.384;4.882;2023-11-21T09:03:12;12.10;;;5.30;;
81821;SDS011;72257;52.384;4.882;2023-11-21T09:05:38;10.55;;;5.50;;
81821;SDS011;72257;52.384;4.882;2023-11-21T09:08:03;11.23;;;5.30;;
81821;SDS011;72257;52.384;4.882;2023-11-21T09:10:29;9.67;;;5.10;;
81821;SDS011;72257;52.384;4.882;2023-11-21T09:12:54;11.37;;;5.30;;
81821;SDS011;72257;52.384;4.882;2023-11-21T09:15:19;11.23;;;6.33;;
81821;SDS011;72257;52.384;4.882;2023-11-21T09:17:45;10.90;;;5.88;;
81821;SDS011;72257;52.384;4.882;2023-11-21T09:20:10;10.83;;;5.10;;
81821;SDS011;72257;52.384;4.882;2023-11-21T09:22:36;12.00;;;5.65;;
81821;SDS011;72257;52.384;4.882;2023-11-21T09:25:01;11.45;;;5.65;;
81821;SDS011;72257;52.384;4.882;2023-11-21T09:27:30;13.38;;;6.15;;
81821;SDS011;72257;52.384;4.882;2023-11-21T09:29:55;12.23;;;6.43;;
81821;SDS011;72257;52.384;4.882;2023-11-21T09:32:20;13.37;;;5.67;;
81821;SDS011;72257;52.384;4.882;2023-11-21T09:34:46;11.75;;;5.80;;
81821;SDS011;72257;52.384;4.882;2023-11-21T09:37:11;12.03;;;5.97;;
81821;SDS011;72257;52.384;4.882;2023-11-21T09:39:36;11.97;;;5.63;;
81821;SDS011;72257;52.384;4.882;2023-11-21T09:42:36;13.07;;;6.18;;
81821;SDS011;72257;52.384;4.882;2023-11-21T09:47:39;13.30;;;5.45;;
81821;SDS011;72257;52.384;4.882;2023-11-21T09:50:04;12.67;;;5.87;;
81821;SDS011;72257;52.384;4.882;2023-11-21T09:54:57;13.45;;;5.40;;
81821;SDS011;72257;52.384;4.882;2023-11-21T09:57:23;11.93;;;5.75;;
81821;SDS011;72257;52.384;4.882;2023-11-21T09:59:53;9.93;;;5.10;;
81821;SDS011;72257;52.384;4.882;2023-11-21T10:02:24;9.57;;;4.18;;
81821;SDS011;72257;52.384;4.882;2023-11-21T10:04:51;11.15;;;5.13;;
81821;SDS011;72257;52.384;4.882;2023-11-21T10:07:17;9.38;;;4.68;;
81821;SDS011;72257;52.384;4.882;2023-11-21T10:09:42;9.77;;;5.07;;
81821;SDS011;72257;52.384;4.882;2023-11-21T10:12:07;9.63;;;4.70;;
81821;SDS011;72257;52.384;4.882;2023-11-21T10:14:35;12.13;;;5.05;;
81821;SDS011;72257;52.384;4.882;2023-11-21T10:17:02;12.23;;;5.68;;
81821;SDS011;72257;52.384;4.882;2023-11-21T10:19:27;13.45;;;5.70;;
81821;SDS011;72257;52.384;4.882;2023-11-21T10:21:53;11.77;;;4.72;;
81821;SDS011;72257;52.384;4.882;2023-11-21T10:24:19;18.48;;;6.05;;
81821;SDS011;72257;52.384;4.882;2023-11-21T10:26:44;15.97;;;5.53;;
81821;SDS011;72257;52.384;4.882;2023-11-21T10:29:10;10.90;;;4.72;;
81821;SDS011;72257;52.384;4.882;2023-11-21T10:31:41;13.77;;;5.05;;
81821;SDS011;72257;52.384;4.882;2023-11-21T10:34:19;9.13;;;4.37;;
81821;SDS011;72257;52.384;4.882;2023-11-21T10:36:44;8.45;;;4.15;;
81821;SDS011;72257;52.384;4.882;2023-11-21T10:39:14;9.02;;;4.18;;
81821;SDS011;72257;52.384;4.882;2023-11-21T10:41:43;10.32;;;4.40;;
81821;SDS011;72257;52.384;4.882;2023-11-21T10:44:08;10.95;;;4.28;;
81821;SDS011;72257;52.384;4.882;2023-11-21T10:46:34;9.10;;;4.55;;
81821;SDS011;72257;52.384;4.882;2023-11-21T10:49:00;9.68;;;3.90;;
81821;SDS011;72257;52.384;4.882;2023-11-21T10:51:25;9.60;;;4.20;;
81821;SDS011;72257;52.384;4.882;2023-11-21T10:53:53;12.02;;;5.57;;
81821;SDS011;72257;52.384;4.882;2023-11-21T10:56:19;10.73;;;5.03;;
81821;SDS011;72257;52.384;4.882;2023-11-21T10:58:46;10.25;;;5.65;;
81821;SDS011;72257;52.384;4.882;2023-11-21T11:01:12;9.75;;;4.53;;
81821;SDS011;72257;52.384;4.882;2023-11-21T11:03:39;9.48;;;4.47;;
81821;SDS011;72257;52.384;4.882;2023-11-21T11:06:06;8.40;;;4.80;;
81821;SDS011;72257;52.384;4.882;2023-11-21T11:08:36;11.02;;;5.70;;
81821;SDS011;72257;52.384;4.882;2023-11-21T11:11:02;8.70;;;4.35;;
81821;SDS011;72257;52.384;4.882;2023-11-21T11:13:27;10.07;;;5.40;;
81821;SDS011;72257;52.384;4.882;2023-11-21T11:16:01;8.73;;;4.88;;
81821;SDS011;72257;52.384;4.882;2023-11-21T11:18:30;10.15;;;4.70;;
81821;SDS011;72257;52.384;4.882;2023-11-21T11:21:01;10.60;;;5.10;;
81821;SDS011;72257;52.384;4.882;2023-11-21T11:23:39;8.68;;;4.32;;
81821;SDS011;72257;52.384;4.882;2023-11-21T11:26:18;8.35;;;4.07;;
81821;SDS011;72257;52.384;4.882;2023-11-21T11:28:56;10.20;;;5.35;;
81821;SDS011;72257;52.384;4.882;2023-11-21T11:36:36;8.70;;;4.32;;
81821;SDS011;72257;52.384;4.882;2023-11-21T11:39:02;7.85;;;3.88;;
81821;SDS011;72257;52.384;4.882;2023-11-21T11:41:30;6.43;;;3.85;;
81821;SDS011;72257;52.384;4.882;2023-11-21T11:43:57;8.50;;;4.50;;
81821;SDS011;72257;52.384;4.882;2023-11-21T11:46:44;7.50;;;4.30;;
81821;SDS011;72257;52.384;4.882;2023-11-21T11:49:10;7.68;;;4.10;;
81821;SDS011;72257;52.384;4.882;2023-11-21T11:51:36;7.85;;;3.97;;
81821;SDS011;72257;52.384;4.882;2023-11-21T11:54:01;9.23;;;4.50;;
81821;SDS011;72257;52.384;4.882;2023-11-21T11:56:27;7.83;;;3.90;;
81821;SDS011;72257;52.384;4.882;2023-11-21T11:58:54;8.63;;;4.72;;
81821;SDS011;72257;52.384;4.882;2023-11-21T12:01:20;7.78;;;3.88;;
81821;SDS011;72257;52.384;4.882;2023-11-21T12:06:35;10.38;;;4.15;;
81821;SDS011;72257;52.384;4.882;2023-11-21T12:09:01;7.32;;;3.88;;
81821;SDS011;72257;52.384;4.882;2023-11-21T12:11:32;8.43;;;4.60;;
81821;SDS011;72257;52.384;4.882;2023-11-21T12:13:57;8.10;;;4.53;;
81821;SDS011;72257;52.384;4.882;2023-11-21T12:16:24;7.45;;;4.10;;
81821;SDS011;72257;52.384;4.882;2023-11-21T12:18:52;8.65;;;4.40;;
81821;SDS011;72257;52.384;4.882;2023-11-21T12:21:18;6.85;;;4.18;;
81821;SDS011;72257;52.384;4.882;2023-11-21T12:23:44;8.75;;;4.97;;
81821;SDS011;72257;52.384;4.882;2023-11-21T12:26:11;9.90;;;5.25;;
81821;SDS011;72257;52.384;4.882;2023-11-21T12:28:36;8.87;;;4.80;;
81821;SDS011;72257;52.384;4.882;2023-11-21T12:31:01;8.83;;;5.03;;
81821;SDS011;72257;52.384;4.882;2023-11-21T12:33:26;8.53;;;4.87;;
81821;SDS011;72257;52.384;4.882;2023-11-21T12:35:54;7.47;;;4.43;;
81821;SDS011;72257;52.384;4.882;2023-11-21T12:38:19;9.27;;;4.67;;
81821;SDS011;72257;52.384;4.882;2023-11-21T12:40:44;10.15;;;5.28;;
81821;SDS011;72257;52.384;4.882;2023-11-21T12:43:09;8.87;;;4.73;;
81821;SDS011;72257;52.384;4.882;2023-11-21T12:45:35;8.63;;;4.77;;
81821;SDS011;72257;52.384;4.882;2023-11-21T12:48:04;10.83;;;5.60;;
81821;SDS011;72257;52.384;4.882;2023-11-21T12:50:33;12.23;;;5.88;;
81821;SDS011;72257;52.384;4.882;2023-11-21T12:52:59;12.50;;;5.90;;
81821;SDS011;72257;52.384;4.882;2023-11-21T12:55:25;12.43;;;6.65;;
81821;SDS011;72257;52.384;4.882;2023-11-21T12:57:51;11.75;;;6.53;;
81821;SDS011;72257;52.384;4.882;2023-11-21T13:00:19;12.25;;;6.40;;
81821;SDS011;72257;52.384;4.882;2023-11-21T13:02:52;13.07;;;6.38;;
81821;SDS011;72257;52.384;4.882;2023-11-21T13:05:31;13.02;;;6.55;;
81821;SDS011;72257;52.384;4.882;2023-11-21T13:07:56;13.13;;;6.60;;
81821;SDS011;72257;52.384;4.882;2023-11-21T13:10:25;11.77;;;6.32;;
81821;SDS011;72257;52.384;4.882;2023-11-21T13:12:51;13.20;;;6.47;;
81821;SDS011;72257;52.384;4.882;2023-11-21T13:15:17;10.50;;;5.47;;
81821;SDS011;72257;52.384;4.882;2023-11-21T13:17:42;9.93;;;5.78;;
81821;SDS011;72257;52.384;4.882;2023-11-21T13:20:09;9.02;;;5.35;;
81821;SDS011;72257;52.384;4.882;2023-11-21T13:22:40;11.25;;;5.78;;
81821;SDS011;72257;52.384;4.882;2023-11-21T13:25:09;10.35;;;5.68;;
81821;SDS011;72257;52.384;4.882;2023-11-21T13:27:34;10.10;;;5.47;;
81821;SDS011;72257;52.384;4.882;2023-11-21T13:30:02;9.75;;;5.13;;
81821;SDS011;72257;52.384;4.882;2023-11-21T13:32:28;10.02;;;5.63;;
81821;SDS011;72257;52.384;4.882;2023-11-21T13:34:54;7.68;;;4.72;;
81821;SDS011;72257;52.384;4.882;2023-11-21T13:37:20;8.40;;;4.82;;
81821;SDS011;72257;52.384;4.882;2023-11-21T13:39:45;6.97;;;4.37;;
81821;SDS011;72257;52.384;4.882;2023-11-21T13:42:14;7.07;;;4.22;;
81821;SDS011;72257;52.384;4.882;2023-11-21T13:44:41;8.02;;;3.78;;
81821;SDS011;72257;52.384;4.882;2023-11-21T13:49:34;7.65;;;4.32;;
81821;SDS011;72257;52.384;4.882;2023-11-21T13:52:05;8.50;;;3.60;;
81821;SDS011;72257;52.384;4.882;2023-11-21T13:54:32;6.47;;;3.65;;
81821;SDS011;72257;52.384;4.882;2023-11-21T13:56:57;6.30;;;4.03;;
81821;SDS011;72257;52.384;4.882;2023-11-21T13:59:24;8.75;;;4.10;;
81821;SDS011;72257;52.384;4.882;2023-11-21T14:01:53;7.90;;;4.13;;
81821;SDS011;72257;52.384;4.882;2023-11-21T14:04:18;8.10;;;4.53;;
81821;SDS011;72257;52.384;4.882;2023-11-21T14:06:43;7.53;;;4.73;;
81821;SDS011;72257;52.384;4.882;2023-11-21T14:09:15;8.63;;;4.35;;
81821;SDS011;72257;52.384;4.882;2023-11-21T14:11:48;7.95;;;4.57;;
81821;SDS011;72257;52.384;4.882;2023-11-21T14:14:14;9.20;;;4.97;;
81821;SDS011;72257;52.384;4.882;2023-11-21T14:16:39;8.80;;;4.73;;
81821;SDS011;72257;52.384;4.882;2023-11-21T14:19:04;8.07;;;4.83;;
81821;SDS011;72257;52.384;4.882;2023-11-21T14:21:40;7.28;;;4.50;;
81821;SDS011;72257;52.384;4.882;2023-11-21T14:24:08;9.23;;;5.32;;
81821;SDS011;72257;52.384;4.882;2023-11-21T14:26:34;8.45;;;4.68;;
81821;SDS011;72257;52.384;4.882;2023-11-21T14:29:00;9.93;;;5.30;;
81821;SDS011;72257;52.384;4.882;2023-11-21T14:31:25;9.57;;;4.72;;
81821;SDS011;72257;52.384;4.882;2023-11-21T14:33:51;8.63;;;5.07;;
81821;SDS011;72257;52.384;4.882;2023-11-21T14:36:16;11.50;;;6.00;;
81821;SDS011;72257;52.384;4.882;2023-11-21T14:38:42;11.18;;;6.38;;
81821;SDS011;72257;52.384;4.882;2023-11-21T14:41:07;10.75;;;5.68;;
81821;SDS011;72257;52.384;4.882;2023-11-21T14:43:36;10.88;;;6.40;;
81821;SDS011;72257;52.384;4.882;2023-11-21T14:46:02;9.85;;;5.90;;
81821;SDS011;72257;52.384;4.882;2023-11-21T14:48:28;9.30;;;5.75;;
81821;SDS011;72257;52.384;4.882;2023-11-21T14:51:07;11.07;;;6.13;;